Time;durP1;ratioP1;P1;durP2;ratioP2;P2;SDS_P1;SDS_P2;PMS_P1;PMS_P2;Temp;Humidity;BMP_temperature;BMP_pressure;BME280_temperature;BME280_humidity;BME280_pressure;Samples;Min_cycle;Max_cycle;Signal;HPM_P1;HPM_P2
2021/12/22 00:01:40;;;;;;;29.33;14.70;;;;;;;-1.49;86.18;102664.34;5097282;28;20115;-62
2021/12/22 00:04:06;;;;;;;31.50;15.90;;;;;;;-1.61;86.49;102655.53;5077833;28;20153;-64
2021/12/22 00:06:33;;;;;;;27.98;14.95;;;;;;;-1.67;86.68;102663.38;5095429;28;20365;-62
2021/12/22 00:08:59;;;;;;;31.52;15.45;;;;;;;-1.58;86.29;102659.66;5094979;28;20373;-63
2021/12/22 00:11:25;;;;;;;30.05;15.85;;;;;;;-1.64;86.12;102657.31;5094802;28;20015;-62
2021/12/22 00:13:51;;;;;;;30.75;15.25;;;;;;;-1.62;86.39;102658.91;5096287;28;20056;-63
2021/12/22 00:16:16;;;;;;;30.58;15.55;;;;;;;-1.59;86.59;102665.59;5095230;28;20047;-62
2021/12/22 00:18:42;;;;;;;37.28;15.38;;;;;;;-1.60;86.84;102663.94;5096415;28;20485;-62
2021/12/22 00:21:08;;;;;;;30.88;17.00;;;;;;;-1.57;86.51;102663.81;5095641;28;20024;-63
2021/12/22 00:23:34;;;;;;;37.08;16.60;;;;;;;-1.60;87.00;102658.88;5078570;28;20077;-63
2021/12/22 00:25:59;;;;;;;32.60;16.65;;;;;;;-1.59;86.09;102657.97;5096626;28;20023;-62
2021/12/22 00:28:24;;;;;;;33.22;16.70;;;;;;;-1.64;86.77;102654.78;5078454;28;20027;-64
2021/12/22 00:30:51;;;;;;;34.17;16.17;;;;;;;-1.57;86.37;102657.94;5097081;28;20131;-63
2021/12/22 00:33:18;;;;;;;34.53;16.75;;;;;;;-1.64;86.58;102658.19;5096522;28;20074;-62
2021/12/22 00:35:45;;;;;;;32.88;15.80;;;;;;;-1.66;86.51;102654.06;5096899;28;20047;-62
2021/12/22 00:38:19;;;;;;;36.05;16.15;;;;;;;-1.55;85.75;102663.75;5096704;28;20034;-63
2021/12/22 00:40:47;;;;;;;31.38;16.13;;;;;;;-1.55;86.34;102667.13;5076981;28;20485;-61
2021/12/22 00:43:13;;;;;;;27.52;14.50;;;;;;;-1.66;86.34;102666.72;5076916;28;20402;-61
2021/12/22 00:45:40;;;;;;;27.40;15.52;;;;;;;-1.72;86.01;102652.59;5096315;28;20030;-62
2021/12/22 00:48:08;;;;;;;27.80;15.13;;;;;;;-1.94;86.59;102660.19;5096225;28;20141;-62
2021/12/22 00:50:36;;;;;;;26.77;15.23;;;;;;;-2.03;86.94;102652.13;5078022;28;20489;-62
2021/12/22 00:53:02;;;;;;;27.02;15.18;;;;;;;-1.88;87.15;102652.34;5096162;28;20020;-62
2021/12/22 00:55:27;;;;;;;28.67;15.77;;;;;;;-2.03;87.03;102652.97;5095934;28;20023;-62
2021/12/22 00:57:53;;;;;;;28.52;15.55;;;;;;;-1.83;86.41;102650.47;5096052;28;20470;-63
2021/12/22 01:00:21;;;;;;;30.85;15.35;;;;;;;-1.95;86.90;102652.66;5095969;28;20170;-62
2021/12/22 01:02:47;;;;;;;29.33;15.38;;;;;;;-2.06;87.53;102658.16;5095945;28;20382;-62
2021/12/22 01:05:15;;;;;;;28.70;14.40;;;;;;;-2.08;87.08;102662.44;5095934;28;20020;-62
2021/12/22 01:07:42;;;;;;;25.38;13.93;;;;;;;-2.16;87.18;102655.13;5078120;28;20024;-63
2021/12/22 01:10:08;;;;;;;26.75;14.88;;;;;;;-2.19;87.38;102660.31;5095797;28;20028;-62
2021/12/22 01:12:33;;;;;;;29.85;14.75;;;;;;;-2.33;87.04;102660.84;5095785;28;20031;-62
2021/12/22 01:14:59;;;;;;;27.63;14.82;;;;;;;-2.31;87.79;102654.00;5095993;28;20379;-63
2021/12/22 01:17:24;;;;;;;32.08;16.77;;;;;;;-2.27;87.19;102660.63;5095694;28;20031;-62
2021/12/22 01:20:02;;;;;;;25.67;14.50;;;;;;;-2.34;87.41;102655.81;5095573;28;20516;-63
2021/12/22 01:22:46;;;;;;;36.92;15.07;;;;;;;-2.33;87.33;102660.84;5095728;28;20032;-62
2021/12/22 01:25:14;;;;;;;28.10;14.35;;;;;;;-2.12;87.08;102656.66;5096124;28;20458;-62
2021/12/22 01:27:42;;;;;;;26.95;14.73;;;;;;;-2.23;86.65;102666.38;5095524;28;20028;-63
2021/12/22 01:30:21;;;;;;;30.58;15.43;;;;;;;-2.20;86.42;102663.72;5095551;28;20020;-63
2021/12/22 01:32:48;;;;;;;27.20;15.00;;;;;;;-2.10;86.29;102657.44;5095475;28;20104;-63
2021/12/22 01:35:16;;;;;;;26.20;14.90;;;;;;;-2.27;86.90;102655.53;5095907;28;20047;-62
2021/12/22 01:37:41;;;;;;;33.38;15.60;;;;;;;-2.33;87.52;102660.00;5095336;28;20024;-62
2021/12/22 01:40:09;;;;;;;30.50;15.15;;;;;;;-2.18;87.18;102667.03;5077075;28;20032;-61
2021/12/22 01:42:34;;;;;;;29.25;15.00;;;;;;;-2.14;86.96;102660.97;5076949;28;20083;-61
2021/12/22 01:50:31;;;;;;;28.77;15.73;;;;;;;-2.27;86.71;102660.63;5095146;28;20165;-62
2021/12/22 01:52:59;;;;;;;32.05;15.52;;;;;;;-2.34;86.49;102660.88;5095040;28;20024;-63
2021/12/22 01:55:34;;;;;;;30.67;15.75;;;;;;;-2.39;86.97;102661.03;5076840;28;20069;-66
2021/12/22 01:58:00;;;;;;;33.70;15.27;;;;;;;-2.42;86.71;102653.56;5095234;28;20534;-65
2021/12/22 02:00:27;;;;;;;37.25;16.58;;;;;;;-2.41;87.06;102656.94;5094791;28;20466;-63
2021/12/22 02:02:52;;;;;;;31.42;15.30;;;;;;;-2.44;86.35;102665.47;5076521;28;20020;-63
2021/12/22 02:05:18;;;;;;;29.27;15.55;;;;;;;-2.48;86.18;102663.09;5094580;28;20026;-62
2021/12/22 02:07:43;;;;;;;27.95;14.95;;;;;;;-2.58;86.88;102658.38;5093910;28;20481;-63
2021/12/22 02:10:51;;;;;;;26.90;15.23;;;;;;;-2.69;86.76;102655.41;5094921;28;20012;-63
2021/12/22 02:12:59;;;;;;;26.08;14.63;;;;;;;-2.53;86.84;102655.69;5086283;28;20102;-62
2021/12/22 02:15:24;;;;;;;28.67;15.23;;;;;;;-2.67;87.06;102651.13;5076406;28;20023;-62
2021/12/22 02:17:50;;;;;;;26.98;14.52;;;;;;;-2.79;87.16;102652.38;5094598;28;20103;-63
2021/12/22 02:20:15;;;;;;;29.15;14.25;;;;;;;-2.79;87.35;102651.53;5076257;28;20017;-63
2021/12/22 02:22:43;;;;;;;28.48;15.43;;;;;;;-2.85;87.09;102636.56;5094356;28;20103;-63
2021/12/22 02:25:16;;;;;;;28.77;14.63;;;;;;;-2.82;86.87;102644.91;5076248;28;20479;-63
2021/12/22 02:27:54;;;;;;;;;;;;;;;-2.90;87.69;102644.34;5094794;28;20385;-63
2021/12/22 02:30:26;;;;;;;27.17;14.68;;;;;;;-2.84;87.75;102654.25;5076199;28;19954;-63
2021/12/22 02:35:39;;;;;;;28.35;15.10;;;;;;;-2.68;87.25;102653.69;5094243;28;20471;-61
2021/12/22 02:38:12;;;;;;;29.80;15.25;;;;;;;-2.69;87.16;102657.13;5094197;28;20035;-61
2021/12/22 02:40:38;;;;;;;29.63;15.15;;;;;;;-2.68;87.35;102658.75;5094128;28;20024;-61
2021/12/22 02:43:05;;;;;;;27.05;15.05;;;;;;;-2.66;87.03;102657.81;5094083;28;20126;-62
2021/12/22 02:45:33;;;;;;;30.50;15.27;;;;;;;-2.62;86.71;102649.25;5094020;28;20020;-62
2021/12/22 02:47:58;;;;;;;31.23;14.77;;;;;;;-2.69;86.84;102650.34;5093981;28;20043;-62
2021/12/22 02:50:24;;;;;;;32.08;15.18;;;;;;;-2.63;87.20;102650.13;5093983;28;20024;-62
2021/12/22 02:55:20;;;;;;;30.35;15.18;;;;;;;-2.72;87.18;102656.34;5094167;28;20028;-63
2021/12/22 02:57:49;;;;;;;30.60;14.48;;;;;;;-2.64;87.32;102656.06;5094139;28;20020;-62
2021/12/22 03:05:23;;;;;;;35.53;16.90;;;;;;;-2.67;86.59;102662.97;5094544;28;20032;-64
2021/12/22 03:07:49;;;;;;;32.17;16.85;;;;;;;-2.60;87.17;102659.31;5075615;28;20059;-62
2021/12/22 03:10:17;;;;;;;31.13;16.52;;;;;;;-2.62;87.24;102663.59;5093689;28;20111;-62
2021/12/22 03:12:44;;;;;;;34.58;16.92;;;;;;;-2.60;86.77;102665.19;5093655;28;20379;-62
2021/12/22 03:15:10;;;;;;;31.48;16.23;;;;;;;-2.60;86.20;102666.91;5075396;28;20020;-63
2021/12/22 03:17:37;;;;;;;33.30;16.35;;;;;;;-2.63;86.59;102667.00;5094158;28;20059;-62
2021/12/22 03:20:07;;;;;;;33.00;16.27;;;;;;;-2.66;87.40;102669.66;5093544;28;20031;-63
2021/12/22 03:22:33;;;;;;;28.17;15.68;;;;;;;-2.63;86.60;102659.41;5075449;28;20024;-63
2021/12/22 03:24:58;;;;;;;31.00;14.82;;;;;;;-2.58;86.08;102667.69;5093646;28;20106;-62
2021/12/22 03:27:24;;;;;;;29.48;15.63;;;;;;;-2.57;86.41;102661.72;5093491;28;20056;-62
2021/12/22 03:29:51;;;;;;;30.95;16.15;;;;;;;-2.69;87.14;102663.00;5094041;28;20016;-62
2021/12/22 03:32:17;;;;;;;36.95;17.02;;;;;;;-2.64;86.89;102658.59;5093457;28;20105;-63
2021/12/22 03:34:43;;;;;;;31.98;16.92;;;;;;;-2.63;87.21;102659.41;5093488;28;20056;-62
2021/12/22 03:37:09;;;;;;;31.63;16.25;;;;;;;-2.68;86.95;102656.22;5093502;28;20519;-64
2021/12/22 03:39:35;;;;;;;33.67;16.73;;;;;;;-2.79;86.48;102654.91;5075200;28;20398;-62
2021/12/22 03:42:01;;;;;;;37.70;17.25;;;;;;;-3.25;87.90;102641.31;5093232;28;20055;-61
2021/12/22 03:44:26;;;;;;;33.92;16.42;;;;;;;-2.98;87.83;102637.00;5093911;28;20090;-61
2021/12/22 03:46:51;;;;;;;35.30;17.00;;;;;;;-2.91;86.98;102637.63;5093597;28;20024;-61
2021/12/22 03:49:17;;;;;;;33.55;16.77;;;;;;;-2.92;87.39;102638.50;5093299;28;20031;-60
2021/12/22 03:51:43;;;;;;;35.13;15.63;;;;;;;-2.97;86.95;102633.59;5093296;28;20024;-61
2021/12/22 03:54:11;;;;;;;37.85;17.48;;;;;;;-3.04;86.84;102628.81;5075173;28;20024;-63
2021/12/22 03:56:37;;;;;;;35.65;17.38;;;;;;;-3.17;86.60;102631.75;5075429;28;20028;-62
2021/12/22 03:59:03;;;;;;;32.65;16.40;;;;;;;-3.23;87.01;102623.56;5093221;28;20035;-61
2021/12/22 04:01:29;;;;;;;36.13;16.83;;;;;;;-3.09;87.92;102630.69;5074951;28;20036;-62
2021/12/22 04:03:58;;;;;;;34.08;17.27;;;;;;;-3.17;86.90;102626.69;5093173;28;20446;-62
2021/12/22 04:06:24;;;;;;;33.88;16.27;;;;;;;-3.12;87.05;102629.06;5093139;28;20027;-62
2021/12/22 04:08:49;;;;;;;39.17;16.73;;;;;;;-3.13;86.14;102626.63;5093069;28;20028;-62
2021/12/22 04:11:14;;;;;;;35.47;16.15;;;;;;;-3.12;86.38;102623.19;5093033;28;20099;-62
2021/12/22 04:13:40;;;;;;;31.70;15.88;;;;;;;-3.43;86.83;102617.47;5074996;28;20024;-62
2021/12/22 04:16:05;;;;;;;35.22;16.05;;;;;;;-3.39;87.25;102623.25;5093300;28;20016;-63
2021/12/22 04:18:31;;;;;;;30.73;16.05;;;;;;;-3.35;86.39;102623.97;5093046;28;20024;-62
2021/12/22 04:20:56;;;;;;;27.90;15.10;;;;;;;-3.28;86.64;102620.34;5093142;28;20039;-62
2021/12/22 04:23:21;;;;;;;29.67;15.23;;;;;;;-3.13;85.77;102614.78;5092962;28;20095;-62
2021/12/22 04:25:47;;;;;;;25.98;14.57;;;;;;;-3.36;85.70;102619.81;5093057;28;20081;-63
2021/12/22 04:28:13;;;;;;;28.30;14.73;;;;;;;-3.40;85.73;102608.94;5074759;28;20027;-62
2021/12/22 04:30:41;;;;;;;31.90;14.43;;;;;;;-3.24;85.92;102609.28;5096005;28;20026;-62
2021/12/22 04:33:07;;;;;;;33.40;15.57;;;;;;;-3.21;85.19;102599.06;5096692;28;20052;-62
2021/12/22 04:35:33;;;;;;;29.42;15.05;;;;;;;-3.25;85.18;102608.47;5078418;28;20028;-61
2021/12/22 04:37:58;;;;;;;30.85;15.00;;;;;;;-3.28;85.50;102605.19;5078403;28;20055;-60
2021/12/22 04:40:24;;;;;;;31.65;15.38;;;;;;;-3.33;85.93;102612.94;5096350;28;20508;-61
2021/12/22 04:42:49;;;;;;;31.30;15.55;;;;;;;-3.35;85.62;102606.28;5096595;28;20051;-61
2021/12/22 04:45:18;;;;;;;30.23;14.65;;;;;;;-3.32;85.98;102599.41;5096616;28;20060;-61
2021/12/22 04:47:44;;;;;;;31.42;15.05;;;;;;;-3.30;85.57;102592.59;5078226;28;20028;-62
2021/12/22 04:50:17;;;;;;;29.40;14.50;;;;;;;-3.22;85.19;102597.41;5096380;28;20443;-63
2021/12/22 04:55:20;;;;;;;32.42;14.65;;;;;;;-3.16;86.15;102582.03;5096557;28;20278;-62
2021/12/22 04:57:45;;;;;;;30.58;14.73;;;;;;;-3.05;85.11;102591.75;5077989;28;20024;-63
2021/12/22 05:00:12;;;;;;;28.08;14.80;;;;;;;-3.10;85.19;102586.03;5096316;28;20051;-63
2021/12/22 05:02:38;;;;;;;28.98;14.23;;;;;;;-3.11;85.96;102586.91;5095927;28;20111;-62
2021/12/22 05:05:04;;;;;;;32.65;14.30;;;;;;;-3.01;85.39;102585.72;5096318;28;20431;-62
2021/12/22 05:07:30;;;;;;;30.25;14.57;;;;;;;-3.03;84.42;102584.94;5095935;28;20047;-62
2021/12/22 05:09:55;;;;;;;38.63;14.93;;;;;;;-3.20;84.91;102588.88;5095850;28;20058;-63
2021/12/22 05:12:20;;;;;;;29.75;14.95;;;;;;;-3.09;85.55;102582.63;5095867;28;20028;-62
2021/12/22 05:14:49;;;;;;;33.50;15.60;;;;;;;-3.07;85.07;102579.16;5095785;28;20046;-62
2021/12/22 05:17:22;;;;;;;26.67;14.05;;;;;;;-3.01;85.51;102578.13;5095760;28;20462;-62
2021/12/22 05:19:47;;;;;;;31.73;15.50;;;;;;;-3.14;85.69;102582.78;5095644;28;20028;-61
2021/12/22 05:22:13;;;;;;;33.85;15.43;;;;;;;-3.18;85.22;102579.53;5095635;28;20020;-63
2021/12/22 05:24:38;;;;;;;33.10;14.63;;;;;;;-3.17;85.34;102580.34;5095633;28;20024;-64
2021/12/22 05:27:07;;;;;;;34.22;15.48;;;;;;;-2.96;85.59;102582.13;5095878;28;20032;-63
2021/12/22 05:29:33;;;;;;;28.50;14.48;;;;;;;-2.90;85.32;102587.88;5077357;28;20138;-61
2021/12/22 05:32:00;;;;;;;29.98;15.57;;;;;;;-3.00;84.49;102575.53;5077226;28;20064;-63
2021/12/22 05:34:25;;;;;;;35.80;14.75;;;;;;;-2.98;84.81;102583.06;5095659;28;20012;-62
2021/12/22 05:36:51;;;;;;;35.30;15.70;;;;;;;-3.02;85.71;102573.91;5095364;28;20065;-63
2021/12/22 05:39:16;;;;;;;33.08;15.32;;;;;;;-2.98;84.65;102573.78;5077154;28;20050;-62
2021/12/22 05:41:42;;;;;;;28.27;14.50;;;;;;;-2.88;85.18;102578.50;5077382;28;20016;-62
2021/12/22 05:44:07;;;;;;;31.17;14.60;;;;;;;-2.96;84.50;102581.31;5095214;28;20031;-62
2021/12/22 05:46:32;;;;;;;30.70;15.57;;;;;;;-2.98;84.21;102578.81;5076962;28;20062;-63
2021/12/22 05:48:58;;;;;;;31.58;14.32;;;;;;;-2.91;84.91;102581.13;5095064;28;20034;-62
2021/12/22 05:51:26;;;;;;;32.55;15.15;;;;;;;-2.85;83.36;102576.69;5076878;28;20020;-62
2021/12/22 05:53:52;;;;;;;32.78;14.90;;;;;;;-3.03;83.63;102575.63;5095036;28;20050;-62
2021/12/22 05:56:17;;;;;;;27.08;14.60;;;;;;;-3.14;84.48;102581.94;5094918;28;20028;-63
2021/12/22 05:58:42;;;;;;;32.90;14.48;;;;;;;-3.38;85.05;102574.34;5094874;28;20024;-62
2021/12/22 06:01:08;;;;;;;28.30;14.50;;;;;;;-3.38;85.74;102573.53;5094780;28;20103;-62
2021/12/22 06:03:33;;;;;;;26.70;13.85;;;;;;;-3.24;85.16;102584.81;5076692;28;20024;-62
2021/12/22 06:05:59;;;;;;;30.45;14.13;;;;;;;-3.21;84.62;102572.06;5094926;28;20034;-61
2021/12/22 06:08:24;;;;;;;32.72;14.48;;;;;;;-3.28;84.44;102573.16;5076477;28;20024;-62
2021/12/22 06:10:49;;;;;;;29.10;14.32;;;;;;;-3.12;84.17;102578.50;5094908;28;20023;-62
2021/12/22 06:13:14;;;;;;;30.30;13.05;;;;;;;-3.12;84.37;102577.69;5094614;28;20047;-61
2021/12/22 06:15:40;;;;;;;28.75;14.25;;;;;;;-3.14;84.41;102576.91;5094509;28;20102;-63
2021/12/22 06:18:06;;;;;;;27.20;13.63;;;;;;;-3.22;84.58;102580.53;5094517;28;20039;-62
2021/12/22 06:20:33;;;;;;;30.00;14.40;;;;;;;-3.32;85.10;102571.59;5094309;28;20099;-61
2021/12/22 06:22:59;;;;;;;29.20;13.95;;;;;;;-3.38;85.25;102568.47;5094430;28;20023;-63
2021/12/22 06:25:25;;;;;;;28.15;13.70;;;;;;;-3.45;85.11;102567.88;5094685;28;20208;-63
2021/12/22 06:27:51;;;;;;;30.85;14.57;;;;;;;-3.51;85.47;102570.56;5095073;28;20028;-61
2021/12/22 06:30:16;;;;;;;28.55;13.80;;;;;;;-3.38;85.62;102574.34;5094327;28;20497;-61
2021/12/22 06:32:42;;;;;;;33.60;14.70;;;;;;;-3.23;85.75;102573.81;5094468;28;20103;-61
2021/12/22 06:35:08;;;;;;;32.70;13.75;;;;;;;-3.14;84.78;102576.91;5094430;28;20020;-63
2021/12/22 06:37:33;;;;;;;31.63;13.32;;;;;;;-3.11;84.25;102566.66;5095062;28;20024;-61
2021/12/22 06:39:59;;;;;;;30.02;13.70;;;;;;;-3.29;84.79;102565.63;5095249;28;20023;-63
2021/12/22 06:42:24;;;;;;;32.80;14.00;;;;;;;-3.22;85.22;102565.34;5076810;28;20051;-61
2021/12/22 06:44:50;;;;;;;30.05;13.98;;;;;;;-3.19;84.43;102572.00;5093806;28;20028;-62
2021/12/22 06:47:16;;;;;;;29.33;13.23;;;;;;;-3.17;84.09;102568.53;5094638;28;20459;-63
2021/12/22 06:49:41;;;;;;;28.35;14.25;;;;;;;-3.11;84.69;102575.06;5095594;28;20051;-63
2021/12/22 06:52:08;;;;;;;29.15;13.75;;;;;;;-3.09;83.71;102565.75;5075828;28;20466;-62
2021/12/22 06:54:33;;;;;;;27.83;13.25;;;;;;;-3.18;84.63;102576.19;5094367;28;20066;-63
2021/12/22 06:56:58;;;;;;;32.33;14.32;;;;;;;-3.17;84.74;102572.75;5075494;28;20479;-63
2021/12/22 06:59:24;;;;;;;32.38;13.32;;;;;;;-3.18;84.96;102569.41;5094163;28;20055;-63
2021/12/22 07:01:50;;;;;;;33.05;13.93;;;;;;;-3.11;85.08;102571.72;5075673;28;20458;-63
2021/12/22 07:04:19;;;;;;;32.22;14.30;;;;;;;-3.11;85.84;102567.50;5093691;28;20023;-62
2021/12/22 07:06:45;;;;;;;25.15;12.80;;;;;;;-3.03;84.75;102565.50;5093911;28;20024;-63
2021/12/22 07:09:10;;;;;;;30.05;13.10;;;;;;;-2.97;83.83;102569.53;5093717;28;20031;-62
2021/12/22 07:11:37;;;;;;;28.23;13.77;;;;;;;-3.13;84.56;102570.97;5093556;28;20020;-64
2021/12/22 07:14:05;;;;;;;29.65;12.93;;;;;;;-3.07;84.66;102573.28;5093568;28;20034;-62
2021/12/22 07:16:31;;;;;;;27.40;12.95;;;;;;;-3.20;84.80;102570.34;5075437;28;20016;-63
2021/12/22 07:18:56;;;;;;;28.70;13.82;;;;;;;-3.14;84.93;102572.66;5092561;28;20077;-61
2021/12/22 07:21:22;;;;;;;28.13;13.30;;;;;;;-3.09;84.91;102570.78;5093415;28;20031;-62
2021/12/22 07:23:48;;;;;;;29.52;13.27;;;;;;;-3.15;84.52;102553.31;5093999;28;20034;-64
2021/12/22 07:26:14;;;;;;;29.52;12.90;;;;;;;-3.06;84.96;102552.97;5076611;28;20028;-62
2021/12/22 07:28:48;;;;;;;26.38;12.52;;;;;;;-2.90;84.59;102565.91;5093720;28;20378;-62
2021/12/22 07:31:16;;;;;;;29.90;12.63;;;;;;;-2.84;84.09;102555.56;5093514;28;20074;-62
2021/12/22 07:33:56;;;;;;;30.15;13.23;;;;;;;-2.98;84.99;102553.53;5093349;28;20032;-62
2021/12/22 07:36:21;;;;;;;32.33;13.25;;;;;;;-2.88;85.08;102555.72;5075255;28;20024;-63
2021/12/22 07:38:58;;;;;;;30.52;12.82;;;;;;;-3.08;85.63;102549.69;5093671;28;20344;-63
2021/12/22 07:41:24;;;;;;;28.63;12.98;;;;;;;-2.86;84.67;102553.97;5093324;28;20028;-63
2021/12/22 07:43:49;;;;;;;34.33;12.65;;;;;;;-2.81;84.79;102560.50;5093782;28;20071;-63
2021/12/22 07:46:15;;;;;;;31.50;13.63;;;;;;;-2.79;85.11;102556.22;5093206;28;20479;-62
2021/12/22 07:48:41;;;;;;;27.27;11.90;;;;;;;-2.84;84.62;102553.03;5093336;28;20027;-62
2021/12/22 07:51:06;;;;;;;34.83;13.10;;;;;;;-2.87;85.04;102547.28;5074919;28;20016;-62
2021/12/22 07:53:31;;;;;;;27.95;12.65;;;;;;;-2.88;85.37;102540.53;5092909;28;20024;-61
2021/12/22 07:55:57;;;;;;;30.65;14.07;;;;;;;-2.98;85.74;102545.94;5092919;28;20028;-61
2021/12/22 07:58:25;;;;;;;29.05;12.70;;;;;;;-3.00;85.71;102537.56;5093075;28;20107;-62
2021/12/22 08:00:51;;;;;;;33.70;15.05;;;;;;;-2.80;86.36;102529.25;5093214;28;20355;-62
2021/12/22 08:03:16;;;;;;;36.47;13.77;;;;;;;-2.53;83.90;102536.72;5092804;28;20035;-63
2021/12/22 08:05:42;;;;;;;30.80;13.73;;;;;;;-2.42;84.08;102538.81;5095801;28;20024;-64
2021/12/22 08:08:08;;;;;;;30.88;12.70;;;;;;;-2.66;84.25;102543.94;5097050;28;20028;-61
2021/12/22 08:10:33;;;;;;;31.63;13.38;;;;;;;-2.74;84.87;102544.19;5096865;28;20016;-62
2021/12/22 08:12:59;;;;;;;31.52;13.27;;;;;;;-2.68;84.45;102548.22;5078647;28;20466;-60
2021/12/22 08:15:24;;;;;;;27.50;12.00;;;;;;;-2.70;84.79;102554.22;5096736;28;20024;-62
2021/12/22 08:17:50;;;;;;;32.58;12.63;;;;;;;-2.73;85.05;102547.59;5096482;28;20058;-61
2021/12/22 08:20:16;;;;;;;27.35;12.32;;;;;;;-2.79;84.56;102543.56;5096436;28;20024;-63
2021/12/22 08:22:41;;;;;;;27.52;12.27;;;;;;;-2.55;84.63;102546.06;5078451;28;20024;-62
2021/12/22 08:25:06;;;;;;;26.55;11.68;;;;;;;-2.53;83.89;102547.66;5078472;28;20020;-62
2021/12/22 08:27:33;;;;;;;28.90;12.25;;;;;;;-2.58;84.35;102547.00;5095599;28;20086;-64
2021/12/22 08:29:58;;;;;;;29.45;12.60;;;;;;;-2.44;83.87;102549.00;5076432;28;20373;-64
2021/12/22 08:32:24;;;;;;;29.00;12.45;;;;;;;-2.70;84.31;102549.16;5095205;28;20024;-62
2021/12/22 08:34:54;;;;;;;29.45;12.48;;;;;;;-2.74;84.24;102549.25;5094643;28;20027;-61
2021/12/22 08:40:05;;;;;;;30.98;12.77;;;;;;;-2.70;84.50;102537.34;5094549;28;20046;-64
2021/12/22 08:42:31;;;;;;;26.70;12.52;;;;;;;-2.60;85.08;102543.69;5085532;28;20438;-63
2021/12/22 08:44:56;;;;;;;31.85;12.90;;;;;;;-2.52;84.60;102545.94;5075433;28;20024;-64
2021/12/22 08:47:22;;;;;;;26.38;12.32;;;;;;;-2.44;83.86;102538.06;5074751;28;20104;-62
2021/12/22 08:49:47;;;;;;;28.42;12.55;;;;;;;-2.14;82.55;102536.03;5074246;28;20023;-66
2021/12/22 08:52:13;;;;;;;31.52;13.07;;;;;;;-2.19;83.37;102548.03;5074169;28;20021;-65
2021/12/22 08:54:39;;;;;;;31.42;13.32;;;;;;;-1.99;82.55;102542.16;5057857;28;20111;-62
2021/12/22 08:57:05;;;;;;;27.88;12.43;;;;;;;-1.95;82.05;102536.94;5077080;28;20090;-62
2021/12/22 08:59:30;;;;;;;26.85;12.50;;;;;;;-2.08;82.97;102543.38;5076196;28;20036;-61
2021/12/22 09:01:56;;;;;;;30.48;12.65;;;;;;;-1.85;82.29;102550.84;5074821;28;20025;-63
2021/12/22 09:04:22;;;;;;;29.67;12.55;;;;;;;-1.78;82.00;102545.53;5055530;28;20063;-61
2021/12/22 09:06:49;;;;;;;30.67;12.43;;;;;;;-1.84;82.01;102541.56;5054369;28;20020;-63
2021/12/22 09:09:16;;;;;;;27.00;13.00;;;;;;;-1.76;81.46;102538.69;5072275;28;20028;-63
2021/12/22 09:11:41;;;;;;;27.83;13.00;;;;;;;-1.83;82.14;102550.81;5072020;28;20083;-63
2021/12/22 09:14:08;;;;;;;24.48;12.20;;;;;;;-1.52;81.36;102550.34;5072155;28;20024;-63
2021/12/22 09:16:35;;;;;;;35.83;13.05;;;;;;;-1.29;80.92;102558.69;5071775;28;20018;-62
2021/12/22 09:19:01;;;;;;;29.23;13.18;;;;;;;-1.29;80.60;102556.16;5071288;28;20024;-63
2021/12/22 09:21:26;;;;;;;31.90;13.25;;;;;;;-1.30;81.33;102550.25;5072499;28;20091;-64
2021/12/22 09:23:52;;;;;;;29.23;13.32;;;;;;;-1.14;80.57;102543.63;5056204;28;20062;-63
2021/12/22 09:26:17;;;;;;;30.58;12.73;;;;;;;-1.10;79.56;102554.44;5075212;28;20020;-63
2021/12/22 09:28:44;;;;;;;32.25;12.50;;;;;;;-1.13;79.83;102546.97;5057565;28;20494;-62
2021/12/22 09:31:09;;;;;;;29.77;12.73;;;;;;;-1.03;80.24;102543.16;5056429;28;20025;-62
2021/12/22 09:33:36;;;;;;;27.83;12.85;;;;;;;-0.97;80.17;102535.25;5055814;28;20040;-62
2021/12/22 09:36:04;;;;;;;27.60;13.23;;;;;;;-1.13;80.21;102547.78;5075131;28;20027;-62
2021/12/22 09:38:29;;;;;;;28.83;12.93;;;;;;;-0.84;79.43;102548.22;5075089;28;20017;-62
2021/12/22 09:40:54;;;;;;;29.50;12.90;;;;;;;-1.21;81.28;102549.03;5074852;28;20036;-62
2021/12/22 09:43:20;;;;;;;34.58;14.15;;;;;;;-0.78;80.15;102549.66;5090594;28;20047;-62
2021/12/22 09:45:50;;;;;;;33.25;13.95;;;;;;;-0.61;79.34;102544.63;5094414;28;20455;-62
2021/12/22 09:48:29;;;;;;;28.75;13.73;;;;;;;-0.63;78.82;102548.97;5093390;28;20488;-63
2021/12/22 09:52:16;;;;;;;25.02;13.35;;;;;;;-0.42;78.51;102546.31;5074949;28;20470;-65
2021/12/22 09:53:46;;;;;;;31.38;13.48;;;;;;;-0.51;78.96;102545.84;5092799;28;20067;-65
2021/12/22 09:56:14;;;;;;;31.58;12.73;;;;;;;-0.59;79.20;102545.38;5093169;28;20028;-67
2021/12/22 09:58:42;;;;;;;37.42;14.15;;;;;;;-0.72;79.08;102542.59;5093238;28;20103;-64
2021/12/22 10:01:08;;;;;;;33.83;13.77;;;;;;;-0.71;80.25;102538.34;5093932;28;20038;-63
2021/12/22 10:03:34;;;;;;;29.40;12.57;;;;;;;-0.59;79.14;102547.91;5094783;28;20020;-65
2021/12/22 10:05:59;;;;;;;30.85;13.75;;;;;;;-0.39;79.49;102544.47;5094843;28;20036;-66
2021/12/22 10:08:27;;;;;;;27.42;13.02;;;;;;;0.16;76.20;102539.25;5094792;28;20026;-63
2021/12/22 10:10:55;;;;;;;29.48;12.98;;;;;;;1.92;70.23;102543.50;5076491;28;20110;-66
2021/12/22 10:13:25;;;;;;;26.40;12.45;;;;;;;2.91;67.57;102537.66;5094633;28;20108;-64
2021/12/22 10:15:51;;;;;;;25.92;12.10;;;;;;;3.02;65.26;102537.00;5094751;28;20474;-65
2021/12/22 10:18:22;;;;;;;26.73;12.68;;;;;;;2.60;66.82;102546.34;5094538;28;20099;-64
2021/12/22 10:20:50;;;;;;;30.50;12.85;;;;;;;2.65;66.64;102534.13;5094921;28;20447;-64
2021/12/22 10:23:26;;;;;;;24.83;12.05;;;;;;;1.69;70.02;102535.44;5076301;28;20027;-66
2021/12/22 10:25:54;;;;;;;32.63;12.55;;;;;;;1.03;72.93;102544.13;5094457;28;20126;-65
2021/12/22 10:28:20;;;;;;;23.25;12.65;;;;;;;1.98;70.46;102533.78;5075368;28;20035;-66
2021/12/22 10:30:47;;;;;;;28.05;13.00;;;;;;;2.95;66.33;102538.28;5076236;28;20028;-65
2021/12/22 10:33:16;;;;;;;27.38;13.10;;;;;;;3.28;65.03;102530.28;5094224;28;20020;-63
2021/12/22 10:35:48;;;;;;;26.40;12.43;;;;;;;2.24;67.92;102522.09;5094227;28;20075;-66
2021/12/22 10:38:15;;;;;;;28.33;12.70;;;;;;;0.97;73.28;102524.06;5092813;28;20093;-63
2021/12/22 10:40:46;;;;;;;24.90;11.90;;;;;;;1.30;72.52;102530.81;5093932;28;20078;-64
2021/12/22 10:43:22;;;;;;;25.65;13.38;;;;;;;1.20;72.59;102529.66;5093650;28;20050;-66
2021/12/22 10:45:51;;;;;;;28.17;12.30;;;;;;;0.98;73.53;102524.88;5074678;28;20394;-66
2021/12/22 10:51:24;;;;;;;30.40;13.18;;;;;;;1.04;73.80;102516.94;5064970;28;20089;-63
2021/12/22 10:53:51;;;;;;;28.60;14.10;;;;;;;1.25;74.18;102518.31;5093823;28;20114;-63
2021/12/22 10:56:32;;;;;;;29.25;13.07;;;;;;;1.24;73.55;102515.88;5093725;28;20425;-64
2021/12/22 10:59:05;;;;;;;26.30;12.30;;;;;;;1.02;74.10;102511.13;5093673;28;20020;-66
2021/12/22 11:01:34;;;;;;;29.88;13.23;;;;;;;1.41;74.18;102499.66;5093465;28;20032;-66
2021/12/22 11:04:04;;;;;;;29.75;14.27;;;;;;;1.67;73.05;102493.94;5093618;28;20023;-64
2021/12/22 11:06:33;;;;;;;29.13;13.02;;;;;;;1.41;73.46;102486.91;5093747;28;20104;-65
2021/12/22 11:09:13;;;;;;;27.80;12.88;;;;;;;1.33;74.07;102488.16;5093226;28;20022;-68
2021/12/22 11:11:48;;;;;;;28.23;13.52;;;;;;;1.19;74.99;102490.66;5093499;28;20020;-65
2021/12/22 11:14:19;;;;;;;32.72;14.48;;;;;;;1.06;75.08;102493.03;5093510;28;20098;-65
2021/12/22 11:16:58;;;;;;;30.63;13.38;;;;;;;1.17;75.23;102489.09;5094049;28;20102;-65
2021/12/22 11:19:24;;;;;;;24.67;12.35;;;;;;;0.93;75.60;102492.06;5093477;28;20024;-65
2021/12/22 11:22:10;;;;;;;24.85;12.77;;;;;;;1.12;75.24;102481.69;5093609;28;20032;-65
2021/12/22 11:24:38;;;;;;;27.33;14.75;;;;;;;1.08;75.23;102480.22;5094612;28;20024;-65
2021/12/22 11:27:05;;;;;;;26.05;13.63;;;;;;;1.09;75.70;102477.59;5094735;28;20078;-63
2021/12/22 11:29:33;;;;;;;25.90;13.07;;;;;;;1.39;75.35;102479.38;5075429;28;20054;-65
2021/12/22 11:32:02;;;;;;;28.83;13.23;;;;;;;1.18;76.17;102475.44;5091519;28;20063;-66
2021/12/22 11:34:29;;;;;;;29.85;13.90;;;;;;;1.01;76.72;102479.75;5091714;28;20020;-67